sensor_id;sensor_type;location;lat;lon;timestamp;pressure;altitude;pressure_sealevel;temperature;humidity
12203;BME280;6164;42.178;24.622;2022-08-01T00:02:05;99252.75;;;22.41;61.76
12203;BME280;6164;42.178;24.622;2022-08-01T00:04:31;99259.47;;;22.38;61.84
12203;BME280;6164;42.178;24.622;2022-08-01T00:06:58;99258.63;;;22.38;61.90
12203;BME280;6164;42.178;24.622;2022-08-01T00:09:26;99262.66;;;22.35;61.97
12203;BME280;6164;42.178;24.622;2022-08-01T00:11:53;99259.16;;;22.35;61.91
12203;BME280;6164;42.178;24.622;2022-08-01T00:14:19;99268.50;;;22.27;61.67
12203;BME280;6164;42.178;24.622;2022-08-01T00:16:46;99268.50;;;22.27;62.15
12203;BME280;6164;42.178;24.622;2022-08-01T00:19:12;99268.16;;;22.24;62.06
12203;BME280;6164;42.178;24.622;2022-08-01T00:21:39;99272.97;;;22.22;61.98
12203;BME280;6164;42.178;24.622;2022-08-01T00:24:05;99268.69;;;22.21;61.70
12203;BME280;6164;42.178;24.622;2022-08-01T00:26:33;99264.66;;;22.23;61.34
12203;BME280;6164;42.178;24.622;2022-08-01T00:29:00;99268.38;;;22.17;61.76
12203;BME280;6164;42.178;24.622;2022-08-01T00:31:26;99262.72;;;22.18;61.67
12203;BME280;6164;42.178;24.622;2022-08-01T00:33:53;99262.72;;;22.18;60.97
12203;BME280;6164;42.178;24.622;2022-08-01T00:36:19;99261.34;;;22.16;60.84
12203;BME280;6164;42.178;24.622;2022-08-01T00:38:46;99261.09;;;22.17;60.71
12203;BME280;6164;42.178;24.622;2022-08-01T00:41:12;99264.84;;;22.16;60.49
12203;BME280;6164;42.178;24.622;2022-08-01T00:43:40;99263.50;;;22.14;60.30
12203;BME280;6164;42.178;24.622;2022-08-01T00:46:06;99264.53;;;22.13;60.12
12203;BME280;6164;42.178;24.622;2022-08-01T00:48:33;99268.88;;;22.14;60.29
12203;BME280;6164;42.178;24.622;2022-08-01T00:50:59;99271.25;;;22.10;60.29
12203;BME280;6164;42.178;24.622;2022-08-01T00:53:26;99270.34;;;22.05;60.45
12203;BME280;6164;42.178;24.622;2022-08-01T00:55:53;99272.16;;;21.99;60.43
12203;BME280;6164;42.178;24.622;2022-08-01T00:58:19;99262.47;;;21.98;60.49
12203;BME280;6164;42.178;24.622;2022-08-01T01:00:47;99262.41;;;21.93;60.67
12203;BME280;6164;42.178;24.622;2022-08-01T01:03:14;99263.91;;;21.84;60.93
12203;BME280;6164;42.178;24.622;2022-08-01T01:05:44;99266.53;;;21.79;61.42
12203;BME280;6164;42.178;24.622;2022-08-01T01:08:13;99262.34;;;21.72;61.82
12203;BME280;6164;42.178;24.622;2022-08-01T01:10:43;99268.16;;;21.64;62.20
12203;BME280;6164;42.178;24.622;2022-08-01T01:13:13;99274.59;;;21.63;62.13
12203;BME280;6164;42.178;24.622;2022-08-01T01:15:43;99267.44;;;21.52;62.66
12203;BME280;6164;42.178;24.622;2022-08-01T01:18:14;99264.44;;;21.48;62.81
12203;BME280;6164;42.178;24.622;2022-08-01T01:20:44;99266.56;;;21.46;62.81
12203;BME280;6164;42.178;24.622;2022-08-01T01:23:24;99265.50;;;21.47;63.46
12203;BME280;6164;42.178;24.622;2022-08-01T01:26:01;99265.34;;;21.37;63.56
12203;BME280;6164;42.178;24.622;2022-08-01T01:28:33;99267.94;;;21.32;63.46
12203;BME280;6164;42.178;24.622;2022-08-01T01:31:02;99262.75;;;21.26;63.52
12203;BME280;6164;42.178;24.622;2022-08-01T01:33:33;99267.78;;;21.22;63.79
12203;BME280;6164;42.178;24.622;2022-08-01T01:36:03;99265.84;;;21.18;63.95
12203;BME280;6164;42.178;24.622;2022-08-01T01:38:32;99267.16;;;21.15;64.08
12203;BME280;6164;42.178;24.622;2022-08-01T01:41:00;99259.47;;;21.07;64.14
12203;BME280;6164;42.178;24.622;2022-08-01T01:43:28;99256.72;;;21.02;64.65
12203;BME280;6164;42.178;24.622;2022-08-01T01:45:55;99259.66;;;21.01;65.04
12203;BME280;6164;42.178;24.622;2022-08-01T01:48:23;99259.97;;;21.04;65.12
12203;BME280;6164;42.178;24.622;2022-08-01T01:50:51;99253.31;;;21.07;65.12
12203;BME280;6164;42.178;24.622;2022-08-01T01:53:19;99253.06;;;21.08;64.97
12203;BME280;6164;42.178;24.622;2022-08-01T01:55:47;99258.53;;;21.13;65.05
12203;BME280;6164;42.178;24.622;2022-08-01T01:58:14;99255.03;;;21.13;64.92
12203;BME280;6164;42.178;24.622;2022-08-01T02:00:41;99255.34;;;21.16;64.99
12203;BME280;6164;42.178;24.622;2022-08-01T02:03:09;99262.00;;;21.14;64.98
12203;BME280;6164;42.178;24.622;2022-08-01T02:05:38;99262.56;;;21.16;65.17
12203;BME280;6164;42.178;24.622;2022-08-01T02:08:05;99255.94;;;21.18;64.96
12203;BME280;6164;42.178;24.622;2022-08-01T02:10:32;99263.81;;;21.25;65.22
12203;BME280;6164;42.178;24.622;2022-08-01T02:13:01;99260.31;;;21.24;65.20
12203;BME280;6164;42.178;24.622;2022-08-01T02:15:29;99257.53;;;21.19;65.66
12203;BME280;6164;42.178;24.622;2022-08-01T02:17:55;99262.56;;;21.16;65.74
12203;BME280;6164;42.178;24.622;2022-08-01T02:20:22;99254.69;;;21.09;65.65
12203;BME280;6164;42.178;24.622;2022-08-01T02:22:52;99259.03;;;21.10;65.91
12203;BME280;6164;42.178;24.622;2022-08-01T02:25:20;99260.06;;;21.09;65.53
12203;BME280;6164;42.178;24.622;2022-08-01T02:27:50;99268.84;;;21.05;63.07
12203;BME280;6164;42.178;24.622;2022-08-01T02:30:18;99271.53;;;21.05;62.03
12203;BME280;6164;42.178;24.622;2022-08-01T02:32:46;99269.09;;;21.03;62.41
12203;BME280;6164;42.178;24.622;2022-08-01T02:35:17;99261.53;;;21.00;62.81
12203;BME280;6164;42.178;24.622;2022-08-01T02:37:46;99261.13;;;21.08;62.65
12203;BME280;6164;42.178;24.622;2022-08-01T02:40:14;99263.56;;;21.10;62.22
12203;BME280;6164;42.178;24.622;2022-08-01T02:42:43;99266.59;;;21.13;62.09
12203;BME280;6164;42.178;24.622;2022-08-01T02:45:11;99271.38;;;21.11;61.83
12203;BME280;6164;42.178;24.622;2022-08-01T02:47:38;99267.38;;;21.14;61.92
12203;BME280;6164;42.178;24.622;2022-08-01T02:50:06;99259.09;;;21.15;62.13
12203;BME280;6164;42.178;24.622;2022-08-01T02:52:34;99255.03;;;21.13;61.94
12203;BME280;6164;42.178;24.622;2022-08-01T02:55:01;99254.19;;;21.12;61.95
12203;BME280;6164;42.178;24.622;2022-08-01T02:57:29;99255.44;;;21.05;62.17
12203;BME280;6164;42.178;24.622;2022-08-01T02:59:56;99253.81;;;21.04;62.25
12203;BME280;6164;42.178;24.622;2022-08-01T03:02:25;99262.09;;;21.02;62.05
12203;BME280;6164;42.178;24.622;2022-08-01T03:04:52;99255.81;;;20.97;62.10
12203;BME280;6164;42.178;24.622;2022-08-01T03:07:19;99258.66;;;20.90;62.69
12203;BME280;6164;42.178;24.622;2022-08-01T03:09:47;99259.94;;;20.87;62.87
12203;BME280;6164;42.178;24.622;2022-08-01T03:12:14;99257.16;;;20.82;62.87
12203;BME280;6164;42.178;24.622;2022-08-01T03:14:43;99256.75;;;20.74;63.37
12203;BME280;6164;42.178;24.622;2022-08-01T03:17:11;99257.72;;;20.68;63.61
12203;BME280;6164;42.178;24.622;2022-08-01T03:19:38;99254.16;;;20.62;63.80
12203;BME280;6164;42.178;24.622;2022-08-01T03:22:05;99253.31;;;20.62;63.95
12203;BME280;6164;42.178;24.622;2022-08-01T03:24:32;99258.09;;;20.60;64.12
12203;BME280;6164;42.178;24.622;2022-08-01T03:26:59;99243.31;;;20.57;64.60
12203;BME280;6164;42.178;24.622;2022-08-01T03:29:27;99248.69;;;20.57;64.71
12203;BME280;6164;42.178;24.622;2022-08-01T03:31:57;99245.28;;;20.62;64.46
12203;BME280;6164;42.178;24.622;2022-08-01T03:34:25;99255.91;;;20.57;64.52
12203;BME280;6164;42.178;24.622;2022-08-01T03:36:53;99247.75;;;20.52;64.36
12203;BME280;6164;42.178;24.622;2022-08-01T03:39:22;99255.47;;;20.48;64.62
12203;BME280;6164;42.178;24.622;2022-08-01T03:41:52;99261.06;;;20.47;64.80
12203;BME280;6164;42.178;24.622;2022-08-01T03:44:23;99255.38;;;20.43;65.00
12203;BME280;6164;42.178;24.622;2022-08-01T03:46:51;99255.38;;;20.43;65.19
12203;BME280;6164;42.178;24.622;2022-08-01T03:49:23;99247.56;;;20.42;65.21
12203;BME280;6164;42.178;24.622;2022-08-01T03:51:49;99258.41;;;20.47;65.14
12203;BME280;6164;42.178;24.622;2022-08-01T03:54:17;99261.66;;;20.49;65.09
12203;BME280;6164;42.178;24.622;2022-08-01T03:56:46;99257.81;;;20.45;65.17
12203;BME280;6164;42.178;24.622;2022-08-01T03:59:14;99256.53;;;20.47;65.15
12203;BME280;6164;42.178;24.622;2022-08-01T04:01:42;99269.38;;;20.45;64.87
12203;BME280;6164;42.178;24.622;2022-08-01T04:04:09;99257.09;;;20.49;64.82
12203;BME280;6164;42.178;24.622;2022-08-01T04:06:38;99262.78;;;20.53;64.60
12203;BME280;6164;42.178;24.622;2022-08-01T04:09:04;99259.31;;;20.52;64.44
12203;BME280;6164;42.178;24.622;2022-08-01T04:11:32;99262.78;;;20.53;64.73
12203;BME280;6164;42.178;24.622;2022-08-01T04:13:59;99266.47;;;20.63;64.58
12203;BME280;6164;42.178;24.622;2022-08-01T04:16:25;99257.47;;;20.69;64.59
12203;BME280;6164;42.178;24.622;2022-08-01T04:18:52;99261.88;;;20.75;63.78
12203;BME280;6164;42.178;24.622;2022-08-01T04:21:20;99258.72;;;20.78;64.24
12203;BME280;6164;42.178;24.622;2022-08-01T04:23:49;99267.88;;;20.82;63.78
12203;BME280;6164;42.178;24.622;2022-08-01T04:26:17;99265.88;;;20.89;63.37
12203;BME280;6164;42.178;24.622;2022-08-01T04:28:44;99269.22;;;20.97;62.75
12203;BME280;6164;42.178;24.622;2022-08-01T04:31:11;99269.66;;;21.05;63.02
12203;BME280;6164;42.178;24.622;2022-08-01T04:33:40;99269.66;;;21.05;61.96
12203;BME280;6164;42.178;24.622;2022-08-01T04:36:08;99275.75;;;21.01;61.27
12203;BME280;6164;42.178;24.622;2022-08-01T04:38:36;99261.88;;;21.04;61.37
12203;BME280;6164;42.178;24.622;2022-08-01T04:41:04;99268.19;;;21.14;61.83
12203;BME280;6164;42.178;24.622;2022-08-01T04:43:32;99269.59;;;21.17;61.05
12203;BME280;6164;42.178;24.622;2022-08-01T04:45:59;99275.91;;;21.27;60.72
12203;BME280;6164;42.178;24.622;2022-08-01T04:48:28;99271.78;;;21.36;59.45
12203;BME280;6164;42.178;24.622;2022-08-01T04:50:55;99272.66;;;21.25;59.71
12203;BME280;6164;42.178;24.622;2022-08-01T04:53:22;99273.22;;;21.44;59.35
12203;BME280;6164;42.178;24.622;2022-08-01T04:55:48;99271.69;;;21.48;59.56
12203;BME280;6164;42.178;24.622;2022-08-01T04:58:16;99276.97;;;21.59;59.17
12203;BME280;6164;42.178;24.622;2022-08-01T05:00:43;99280.22;;;21.61;59.19
12203;BME280;6164;42.178;24.622;2022-08-01T05:03:10;99279.78;;;21.69;58.82
12203;BME280;6164;42.178;24.622;2022-08-01T05:05:36;99278.31;;;21.78;58.19
12203;BME280;6164;42.178;24.622;2022-08-01T05:08:03;99276.28;;;21.85;57.29
12203;BME280;6164;42.178;24.622;2022-08-01T05:10:31;99283.41;;;21.96;56.85
12203;BME280;6164;42.178;24.622;2022-08-01T05:12:57;99286.16;;;22.01;55.44
12203;BME280;6164;42.178;24.622;2022-08-01T05:15:25;99284.69;;;22.10;55.13
12203;BME280;6164;42.178;24.622;2022-08-01T05:17:52;99286.09;;;22.18;55.02
12203;BME280;6164;42.178;24.622;2022-08-01T05:20:18;99278.59;;;22.20;54.45
12203;BME280;6164;42.178;24.622;2022-08-01T05:22:45;99284.13;;;22.30;54.17
12203;BME280;6164;42.178;24.622;2022-08-01T05:25:12;99279.38;;;22.37;52.93
12203;BME280;6164;42.178;24.622;2022-08-01T05:27:38;99274.88;;;22.48;52.07
12203;BME280;6164;42.178;24.622;2022-08-01T05:30:06;99277.47;;;22.59;51.21
12203;BME280;6164;42.178;24.622;2022-08-01T05:32:34;99279.50;;;22.52;49.65
12203;BME280;6164;42.178;24.622;2022-08-01T05:35:01;99274.00;;;22.64;50.71
12203;BME280;6164;42.178;24.622;2022-08-01T05:37:28;99272.50;;;22.73;49.70
12203;BME280;6164;42.178;24.622;2022-08-01T05:39:55;99258.31;;;22.82;49.71
12203;BME280;6164;42.178;24.622;2022-08-01T05:42:21;99276.38;;;22.87;47.82
12203;BME280;6164;42.178;24.622;2022-08-01T05:44:47;99285.91;;;22.94;47.68
12203;BME280;6164;42.178;24.622;2022-08-01T05:47:15;99281.88;;;22.97;48.29
12203;BME280;6164;42.178;24.622;2022-08-01T05:49:43;99275.97;;;23.00;47.48
12203;BME280;6164;42.178;24.622;2022-08-01T05:52:10;99266.88;;;23.06;47.68
12203;BME280;6164;42.178;24.622;2022-08-01T05:54:37;99276.94;;;23.15;47.27
12203;BME280;6164;42.178;24.622;2022-08-01T05:57:03;99276.53;;;23.28;47.43
12203;BME280;6164;42.178;24.622;2022-08-01T05:59:30;99281.16;;;23.38;47.57
12203;BME280;6164;42.178;24.622;2022-08-01T06:01:57;99283.97;;;23.53;47.23
12203;BME280;6164;42.178;24.622;2022-08-01T06:04:23;99278.59;;;23.53;46.64
12203;BME280;6164;42.178;24.622;2022-08-01T06:06:51;99278.94;;;23.67;45.44
12203;BME280;6164;42.178;24.622;2022-08-01T06:09:18;99282.25;;;23.79;45.11
12203;BME280;6164;42.178;24.622;2022-08-01T06:11:44;99272.28;;;23.79;44.89
12203;BME280;6164;42.178;24.622;2022-08-01T06:14:11;99269.38;;;23.91;45.09
12203;BME280;6164;42.178;24.622;2022-08-01T06:16:37;99278.91;;;23.98;44.07
12203;BME280;6164;42.178;24.622;2022-08-01T06:19:04;99274.06;;;24.10;44.19
12203;BME280;6164;42.178;24.622;2022-08-01T06:21:30;99276.56;;;24.27;43.00
12203;BME280;6164;42.178;24.622;2022-08-01T06:23:58;99274.22;;;24.45;43.30
12203;BME280;6164;42.178;24.622;2022-08-01T06:26:25;99299.63;;;24.59;41.88
12203;BME280;6164;42.178;24.622;2022-08-01T06:28:51;99302.38;;;24.75;40.83
12203;BME280;6164;42.178;24.622;2022-08-01T06:31:18;99295.38;;;24.84;41.17
12203;BME280;6164;42.178;24.622;2022-08-01T06:33:44;99293.25;;;25.01;40.72
12203;BME280;6164;42.178;24.622;2022-08-01T06:36:10;99294.59;;;25.13;40.68
12203;BME280;6164;42.178;24.622;2022-08-01T06:38:37;99300.56;;;25.30;40.01
12203;BME280;6164;42.178;24.622;2022-08-01T06:41:05;99292.22;;;25.37;40.42
12203;BME280;6164;42.178;24.622;2022-08-01T06:43:32;99312.19;;;25.41;39.21
12203;BME280;6164;42.178;24.622;2022-08-01T06:45:58;99310.59;;;25.50;39.54
12203;BME280;6164;42.178;24.622;2022-08-01T06:48:25;99314.63;;;25.57;39.01
12203;BME280;6164;42.178;24.622;2022-08-01T06:50:51;99312.47;;;25.64;38.56
12203;BME280;6164;42.178;24.622;2022-08-01T06:53:32;99320.53;;;25.79;38.01
12203;BME280;6164;42.178;24.622;2022-08-01T06:55:59;99326.75;;;25.75;38.20
12203;BME280;6164;42.178;24.622;2022-08-01T06:58:27;99330.00;;;25.77;37.94
12203;BME280;6164;42.178;24.622;2022-08-01T07:00:53;99320.81;;;25.83;37.92
12203;BME280;6164;42.178;24.622;2022-08-01T07:03:20;99333.22;;;25.94;37.54
12203;BME280;6164;42.178;24.622;2022-08-01T07:05:46;99314.84;;;26.01;37.75
12203;BME280;6164;42.178;24.622;2022-08-01T07:08:13;99323.72;;;26.17;37.79
12203;BME280;6164;42.178;24.622;2022-08-01T07:10:39;99328.28;;;26.21;36.95
12203;BME280;6164;42.178;24.622;2022-08-01T07:13:06;99335.34;;;26.22;36.84
12203;BME280;6164;42.178;24.622;2022-08-01T07:15:34;99338.00;;;26.32;36.52
12203;BME280;6164;42.178;24.622;2022-08-01T07:18:00;99326.63;;;26.35;37.54
12203;BME280;6164;42.178;24.622;2022-08-01T07:20:29;99347.72;;;26.38;36.63
12203;BME280;6164;42.178;24.622;2022-08-01T07:22:55;99324.97;;;26.39;37.41
12203;BME280;6164;42.178;24.622;2022-08-01T07:25:22;99331.47;;;26.38;36.97
12203;BME280;6164;42.178;24.622;2022-08-01T07:27:48;99356.31;;;26.65;35.89
12203;BME280;6164;42.178;24.622;2022-08-01T07:30:15;99369.56;;;26.62;34.93
12203;BME280;6164;42.178;24.622;2022-08-01T07:32:43;99370.91;;;26.59;35.39
12203;BME280;6164;42.178;24.622;2022-08-01T07:35:09;99376.84;;;26.76;35.30
12203;BME280;6164;42.178;24.622;2022-08-01T07:37:36;99366.88;;;26.57;35.92
12203;BME280;6164;42.178;24.622;2022-08-01T07:40:02;99342.78;;;26.55;36.50
12203;BME280;6164;42.178;24.622;2022-08-01T07:42:30;99368.81;;;26.46;34.74
12203;BME280;6164;42.178;24.622;2022-08-01T07:44:56;99360.38;;;26.58;35.38
12203;BME280;6164;42.178;24.622;2022-08-01T07:47:23;99353.03;;;26.63;35.48
12203;BME280;6164;42.178;24.622;2022-08-01T07:49:51;99362.78;;;26.64;35.15
12203;BME280;6164;42.178;24.622;2022-08-01T07:52:18;99363.84;;;26.73;34.48
12203;BME280;6164;42.178;24.622;2022-08-01T07:54:44;99355.13;;;26.86;34.49
12203;BME280;6164;42.178;24.622;2022-08-01T07:57:11;99377.34;;;26.83;34.38
12203;BME280;6164;42.178;24.622;2022-08-01T07:59:37;99372.66;;;26.94;33.86
12203;BME280;6164;42.178;24.622;2022-08-01T08:02:04;99367.75;;;27.01;34.53
12203;BME280;6164;42.178;24.622;2022-08-01T08:04:30;99353.22;;;27.26;34.60
12203;BME280;6164;42.178;24.622;2022-08-01T08:06:58;99371.31;;;27.40;34.47
12203;BME280;6164;42.178;24.622;2022-08-01T08:09:24;99369.72;;;27.34;34.32
12203;BME280;6164;42.178;24.622;2022-08-01T08:11:51;99367.38;;;27.17;34.38
12203;BME280;6164;42.178;24.622;2022-08-01T08:14:17;99348.09;;;27.24;34.75
12203;BME280;6164;42.178;24.622;2022-08-01T08:16:44;99360.81;;;27.29;33.70
12203;BME280;6164;42.178;24.622;2022-08-01T08:19:11;99349.97;;;27.23;34.38
12203;BME280;6164;42.178;24.622;2022-08-01T08:21:38;99320.91;;;27.39;34.97
12203;BME280;6164;42.178;24.622;2022-08-01T08:24:06;99331.53;;;27.26;34.43
12203;BME280;6164;42.178;24.622;2022-08-01T08:26:49;99316.38;;;27.58;34.51
12203;BME280;6164;42.178;24.622;2022-08-01T08:29:16;99337.91;;;27.45;33.70
12203;BME280;6164;42.178;24.622;2022-08-01T08:31:42;99353.97;;;27.41;33.82
12203;BME280;6164;42.178;24.622;2022-08-01T08:34:09;99322.75;;;27.44;35.03
12203;BME280;6164;42.178;24.622;2022-08-01T08:36:35;99330.03;;;27.48;34.54
12203;BME280;6164;42.178;24.622;2022-08-01T08:39:02;99371.31;;;27.40;33.86
12203;BME280;6164;42.178;24.622;2022-08-01T08:41:30;99341.34;;;27.55;34.54
12203;BME280;6164;42.178;24.622;2022-08-01T08:43:57;99331.38;;;27.51;34.84
12203;BME280;6164;42.178;24.622;2022-08-01T08:46:24;99351.66;;;27.53;34.71
12203;BME280;6164;42.178;24.622;2022-08-01T08:48:51;99333.47;;;27.59;34.39
12203;BME280;6164;42.178;24.622;2022-08-01T08:51:18;99303.53;;;27.69;35.45
12203;BME280;6164;42.178;24.622;2022-08-01T08:53:45;99313.75;;;27.77;34.45
12203;BME280;6164;42.178;24.622;2022-08-01T08:56:12;99332.31;;;27.65;34.50
12203;BME280;6164;42.178;24.622;2022-08-01T08:58:41;99317.59;;;27.76;33.71
12203;BME280;6164;42.178;24.622;2022-08-01T09:01:09;99333.88;;;27.76;33.95
12203;BME280;6164;42.178;24.622;2022-08-01T09:03:37;99311.13;;;28.00;34.14
12203;BME280;6164;42.178;24.622;2022-08-01T09:06:04;99307.75;;;28.08;34.35
12203;BME280;6164;42.178;24.622;2022-08-01T09:08:32;99339.94;;;28.20;33.65
12203;BME280;6164;42.178;24.622;2022-08-01T09:10:59;99313.38;;;28.35;33.96
12203;BME280;6164;42.178;24.622;2022-08-01T09:13:25;99331.38;;;28.31;34.07
12203;BME280;6164;42.178;24.622;2022-08-01T09:15:53;99325.78;;;28.23;34.15
12203;BME280;6164;42.178;24.622;2022-08-01T09:18:31;99316.63;;;28.37;34.14
12203;BME280;6164;42.178;24.622;2022-08-01T09:23:44;99331.25;;;28.18;33.52
12203;BME280;6164;42.178;24.622;2022-08-01T09:26:11;99309.19;;;28.24;33.86
12203;BME280;6164;42.178;24.622;2022-08-01T09:28:38;99319.63;;;28.36;33.46
12203;BME280;6164;42.178;24.622;2022-08-01T09:31:07;99300.22;;;28.48;34.12
12203;BME280;6164;42.178;24.622;2022-08-01T09:33:47;99335.00;;;28.45;33.62
12203;BME280;6164;42.178;24.622;2022-08-01T09:36:13;99318.69;;;28.27;34.08
12203;BME280;6164;42.178;24.622;2022-08-01T09:38:40;99288.31;;;28.43;34.86
12203;BME280;6164;42.178;24.622;2022-08-01T09:41:06;99280.50;;;28.61;34.20
12203;BME280;6164;42.178;24.622;2022-08-01T09:43:33;99278.91;;;28.60;33.95
12203;BME280;6164;42.178;24.622;2022-08-01T09:46:02;99254.25;;;28.75;34.82
12203;BME280;6164;42.178;24.622;2022-08-01T09:48:31;99265.78;;;28.43;34.05
12203;BME280;6164;42.178;24.622;2022-08-01T09:50:58;99254.63;;;28.68;34.27
12203;BME280;6164;42.178;24.622;2022-08-01T09:53:25;99286.25;;;28.78;33.32
12203;BME280;6164;42.178;24.622;2022-08-01T09:55:52;99293.06;;;28.75;33.69
12203;BME280;6164;42.178;24.622;2022-08-01T09:58:19;99278.63;;;28.80;34.53
12203;BME280;6164;42.178;24.622;2022-08-01T10:00:57;99280.88;;;28.73;33.56
12203;BME280;6164;42.178;24.622;2022-08-01T10:03:24;99288.06;;;28.82;32.79
12203;BME280;6164;42.178;24.622;2022-08-01T10:05:52;99272.63;;;28.96;33.26
12203;BME280;6164;42.178;24.622;2022-08-01T10:08:19;99269.41;;;29.13;33.63
12203;BME280;6164;42.178;24.622;2022-08-01T10:13:28;99274.00;;;29.31;32.77
12203;BME280;6164;42.178;24.622;2022-08-01T10:15:55;99291.03;;;29.36;32.26
12203;BME280;6164;42.178;24.622;2022-08-01T10:18:22;99286.34;;;29.42;32.97
12203;BME280;6164;42.178;24.622;2022-08-01T10:20:49;99282.28;;;29.39;33.27
12203;BME280;6164;42.178;24.622;2022-08-01T10:23:17;99296.66;;;29.58;32.06
12203;BME280;6164;42.178;24.622;2022-08-01T10:25:43;99292.56;;;29.42;32.88
12203;BME280;6164;42.178;24.622;2022-08-01T10:28:17;99274.97;;;29.53;33.57
12203;BME280;6164;42.178;24.622;2022-08-01T10:30:45;99277.69;;;29.53;33.21
12203;BME280;6164;42.178;24.622;2022-08-01T10:33:12;99260.94;;;29.46;33.38
12203;BME280;6164;42.178;24.622;2022-08-01T10:35:38;99296.09;;;29.43;32.82
12203;BME280;6164;42.178;24.622;2022-08-01T10:38:05;99288.56;;;29.53;32.00
12203;BME280;6164;42.178;24.622;2022-08-01T10:40:33;99287.84;;;29.80;32.51
12203;BME280;6164;42.178;24.622;2022-08-01T10:43:01;99306.78;;;29.72;32.18
12203;BME280;6164;42.178;24.622;2022-08-01T10:45:28;99282.28;;;29.72;33.21
12203;BME280;6164;42.178;24.622;2022-08-01T10:47:56;99283.50;;;29.93;32.70
12203;BME280;6164;42.178;24.622;2022-08-01T10:50:27;99283.63;;;30.15;32.45
12203;BME280;6164;42.178;24.622;2022-08-01T10:53:03;99299.53;;;29.94;32.15
12203;BME280;6164;42.178;24.622;2022-08-01T10:55:30;99287.03;;;30.07;32.13
12203;BME280;6164;42.178;24.622;2022-08-01T10:58:12;99304.09;;;29.85;31.80
12203;BME280;6164;42.178;24.622;2022-08-01T11:00:38;99302.56;;;29.93;31.64
12203;BME280;6164;42.178;24.622;2022-08-01T11:03:05;99283.41;;;29.98;32.50
12203;BME280;6164;42.178;24.622;2022-08-01T11:05:32;99297.75;;;30.30;31.95
12203;BME280;6164;42.178;24.622;2022-08-01T11:08:01;99315.06;;;30.07;31.91
12203;BME280;6164;42.178;24.622;2022-08-01T11:10:30;99297.41;;;30.18;31.98
12203;BME280;6164;42.178;24.622;2022-08-01T11:13:00;99305.78;;;30.22;31.84
12203;BME280;6164;42.178;24.622;2022-08-01T11:15:32;99323.50;;;30.24;31.31
12203;BME280;6164;42.178;24.622;2022-08-01T11:17:59;99313.78;;;30.45;30.96
12203;BME280;6164;42.178;24.622;2022-08-01T11:20:26;99311.25;;;30.22;31.67
12203;BME280;6164;42.178;24.622;2022-08-01T11:28:46;99273.41;;;30.07;32.24
12203;BME280;6164;42.178;24.622;2022-08-01T11:31:34;99289.56;;;30.17;31.08
12203;BME280;6164;42.178;24.622;2022-08-01T11:34:00;99297.16;;;30.20;31.77
12203;BME280;6164;42.178;24.622;2022-08-01T11:36:27;99285.81;;;30.53;31.19
12203;BME280;6164;42.178;24.622;2022-08-01T11:39:16;99291.81;;;30.91;30.96
12203;BME280;6164;42.178;24.622;2022-08-01T11:41:43;99297.19;;;30.69;31.24
12203;BME280;6164;42.178;24.622;2022-08-01T11:44:10;99328.69;;;30.61;30.14
12203;BME280;6164;42.178;24.622;2022-08-01T11:46:48;99342.16;;;30.44;30.04
12203;BME280;6164;42.178;24.622;2022-08-01T11:49:28;99323.09;;;30.44;30.52
12203;BME280;6164;42.178;24.622;2022-08-01T11:51:58;99334.75;;;30.45;29.84
12203;BME280;6164;42.178;24.622;2022-08-01T11:54:26;99343.13;;;30.62;29.50
12203;BME280;6164;42.178;24.622;2022-08-01T11:56:54;99321.59;;;30.87;30.04
12203;BME280;6164;42.178;24.622;2022-08-01T11:59:21;99346.72;;;30.98;29.93
12203;BME280;6164;42.178;24.622;2022-08-01T12:01:49;99335.00;;;30.98;29.53
12203;BME280;6164;42.178;24.622;2022-08-01T12:04:15;99345.03;;;30.88;29.63
12203;BME280;6164;42.178;24.622;2022-08-01T12:06:42;99334.00;;;30.94;29.88
12203;BME280;6164;42.178;24.622;2022-08-01T12:09:15;99338.19;;;31.13;29.66
12203;BME280;6164;42.178;24.622;2022-08-01T12:11:42;99349.38;;;31.25;29.85
12203;BME280;6164;42.178;24.622;2022-08-01T12:14:08;99334.25;;;31.41;29.41
12203;BME280;6164;42.178;24.622;2022-08-01T12:16:36;99350.31;;;31.43;29.64
12203;BME280;6164;42.178;24.622;2022-08-01T12:19:04;99360.34;;;31.34;28.79
12203;BME280;6164;42.178;24.622;2022-08-01T12:21:30;99372.56;;;31.36;28.89
12203;BME280;6164;42.178;24.622;2022-08-01T12:24:00;99393.84;;;31.48;28.65
12203;BME280;6164;42.178;24.622;2022-08-01T12:26:38;99384.28;;;31.59;28.33
12203;BME280;6164;42.178;24.622;2022-08-01T12:29:04;99386.41;;;31.40;28.34
12203;BME280;6164;42.178;24.622;2022-08-01T12:31:31;99363.94;;;31.65;29.07
12203;BME280;6164;42.178;24.622;2022-08-01T12:33:58;99376.28;;;31.84;29.28
12203;BME280;6164;42.178;24.622;2022-08-01T12:36:28;99392.72;;;31.71;28.11
12203;BME280;6164;42.178;24.622;2022-08-01T12:38:55;99373.91;;;31.91;28.26
12203;BME280;6164;42.178;24.622;2022-08-01T12:41:24;99375.22;;;32.25;28.81
12203;BME280;6164;42.178;24.622;2022-08-01T12:43:51;99403.81;;;32.19;28.09
12203;BME280;6164;42.178;24.622;2022-08-01T12:46:18;99398.84;;;31.76;28.24
12203;BME280;6164;42.178;24.622;2022-08-01T12:48:44;99378.84;;;32.11;28.96
12203;BME280;6164;42.178;24.622;2022-08-01T12:51:11;99380.25;;;32.00;28.30
12203;BME280;6164;42.178;24.622;2022-08-01T12:53:39;99385.59;;;32.05;28.61
12203;BME280;6164;42.178;24.622;2022-08-01T12:56:05;99370.25;;;32.27;28.56
12203;BME280;6164;42.178;24.622;2022-08-01T12:58:33;99380.69;;;32.25;28.36
12203;BME280;6164;42.178;24.622;2022-08-01T13:01:03;99376.47;;;32.49;28.34
12203;BME280;6164;42.178;24.622;2022-08-01T13:03:29;99402.41;;;32.30;28.01
12203;BME280;6164;42.178;24.622;2022-08-01T13:05:57;99392.34;;;32.47;27.82
12203;BME280;6164;42.178;24.622;2022-08-01T13:08:26;99390.69;;;32.68;27.32
12203;BME280;6164;42.178;24.622;2022-08-01T13:11:00;99399.34;;;32.70;27.09
12203;BME280;6164;42.178;24.622;2022-08-01T13:13:36;99396.34;;;32.89;27.64
12203;BME280;6164;42.178;24.622;2022-08-01T13:16:03;99406.63;;;32.75;27.40